Time;durP1;ratioP1;P1;durP2;ratioP2;P2;SDS_P1;SDS_P2;PMS_P1;PMS_P2;Temp;Humidity;BMP_temperature;BMP_pressure;BME280_temperature;BME280_humidity;BME280_pressure;Samples;Min_cycle;Max_cycle;Signal;HPM_P1;HPM_P2
2021/09/01 00:02:03;;;;;;;2.30;1.90;;;;;;;;;;5013595;28;20539;-75
2021/09/01 00:04:29;;;;;;;3.40;1.80;;;;;;;;;;5014329;28;20033;-75
2021/09/01 00:06:55;;;;;;;2.17;1.98;;;;;;;;;;5012637;28;20385;-75
2021/09/01 00:09:21;;;;;;;3.67;2.05;;;;;;;;;;5014211;28;20045;-75
2021/09/01 00:11:47;;;;;;;2.42;2.05;;;;;;;;;;5013638;28;20029;-75
2021/09/01 00:14:14;;;;;;;2.30;2.10;;;;;;;;;;5014598;28;20045;-74
2021/09/01 00:16:40;;;;;;;2.78;1.98;;;;;;;;;;5014228;28;20033;-75
2021/09/01 00:19:07;;;;;;;2.15;1.90;;;;;;;;;;5014615;28;20026;-75
2021/09/01 00:21:34;;;;;;;2.08;1.80;;;;;;;;;;5031816;28;20408;-75
2021/09/01 00:24:00;;;;;;;2.70;2.10;;;;;;;;;;5034021;28;20442;-75
2021/09/01 00:26:26;;;;;;;2.17;1.90;;;;;;;;;;5033189;28;20064;-75
2021/09/01 00:28:53;;;;;;;2.90;2.15;;;;;;;;;;5018296;28;20096;-75
2021/09/01 00:31:19;;;;;;;3.13;2.10;;;;;;;;;;5013135;28;20036;-75
2021/09/01 00:33:46;;;;;;;2.47;2.03;;;;;;;;;;5013881;28;20026;-75
2021/09/01 00:36:12;;;;;;;2.75;1.95;;;;;;;;;;5013985;28;20147;-75
2021/09/01 00:38:38;;;;;;;2.30;1.98;;;;;;;;;;5013880;28;20106;-75
2021/09/01 00:41:04;;;;;;;2.78;2.22;;;;;;;;;;5013222;28;20457;-75
2021/09/01 00:43:30;;;;;;;3.08;1.92;;;;;;;;;;5014897;28;20447;-75
2021/09/01 00:45:56;;;;;;;3.00;2.55;;;;;;;;;;5031945;28;20499;-75
2021/09/01 00:48:23;;;;;;;2.28;2.08;;;;;;;;;;5033200;28;20022;-75
2021/09/01 00:50:51;;;;;;;3.13;2.10;;;;;;;;;;5033751;28;20029;-75
2021/09/01 00:53:18;;;;;;;6.15;2.28;;;;;;;;;;5031966;28;20120;-75
2021/09/01 00:55:48;;;;;;;3.58;1.90;;;;;;;;;;5033169;28;20057;-75
2021/09/01 00:58:16;;;;;;;2.25;2.05;;;;;;;;;;5033190;28;20017;-75
2021/09/01 01:00:59;;;;;;;3.63;2.35;;;;;;;;;;5033523;28;20029;-77
2021/09/01 01:03:26;;;;;;;2.80;2.17;;;;;;;;;;5032862;28;20397;-77
2021/09/01 01:05:52;;;;;;;2.30;2.10;;;;;;;;;;5033671;28;20021;-76
2021/09/01 01:08:18;;;;;;;2.45;2.25;;;;;;;;;;5032531;28;20099;-76
2021/09/01 01:10:45;;;;;;;2.28;2.00;;;;;;;;;;5031457;28;20114;-76
2021/09/01 01:13:14;;;;;;;2.47;2.28;;;;;;;;;;5033036;28;20103;-76
2021/09/01 01:15:43;;;;;;;2.50;1.92;;;;;;;;;;5033157;28;20017;-76
2021/09/01 01:18:13;;;;;;;3.25;2.15;;;;;;;;;;5033024;28;20029;-76
2021/09/01 01:20:40;;;;;;;2.60;2.38;;;;;;;;;;5017684;28;20029;-76
2021/09/01 01:23:06;;;;;;;2.90;2.25;;;;;;;;;;5012819;28;20030;-76
2021/09/01 01:25:32;;;;;;;2.47;2.28;;;;;;;;;;5013268;28;20072;-76
2021/09/01 01:27:58;;;;;;;2.70;1.95;;;;;;;;;;5020952;28;20037;-76
2021/09/01 01:30:24;;;;;;;2.20;1.98;;;;;;;;;;5032585;28;20021;-76
2021/09/01 01:32:51;;;;;;;2.40;2.00;;;;;;;;;;5031021;28;20080;-76
2021/09/01 01:35:24;;;;;;;2.53;2.20;;;;;;;;;;5032753;28;20028;-76
2021/09/01 01:37:50;;;;;;;;;;;;;;;;;;5033035;28;20448;-76
2021/09/01 01:40:17;;;;;;;2.65;2.20;;;;;;;;;;5032304;28;19906;-76
2021/09/01 01:42:43;;;;;;;2.72;2.10;;;;;;;;;;5030885;28;20022;-76
2021/09/01 01:45:10;;;;;;;3.25;2.20;;;;;;;;;;5017754;28;20079;-76
2021/09/01 01:47:36;;;;;;;2.38;2.17;;;;;;;;;;5012746;28;20085;-76
2021/09/01 01:50:03;;;;;;;2.53;2.22;;;;;;;;;;5012443;28;20025;-76
2021/09/01 01:52:29;;;;;;;2.78;2.13;;;;;;;;;;5010804;28;20054;-76
2021/09/01 01:54:55;;;;;;;3.28;2.35;;;;;;;;;;5012317;28;20022;-76
2021/09/01 01:57:21;;;;;;;3.13;2.30;;;;;;;;;;5012696;28;20385;-76
2021/09/01 01:59:47;;;;;;;3.85;2.47;;;;;;;;;;5012574;28;20161;-76
2021/09/01 02:02:13;;;;;;;3.28;2.53;;;;;;;;;;5011964;28;20540;-76
2021/09/01 02:04:39;;;;;;;2.90;2.30;;;;;;;;;;5012531;28;20401;-76
2021/09/01 02:07:05;;;;;;;3.50;2.40;;;;;;;;;;5012230;28;20053;-76
2021/09/01 02:09:31;;;;;;;2.70;2.35;;;;;;;;;;5012287;28;20101;-76
2021/09/01 02:11:57;;;;;;;3.20;2.40;;;;;;;;;;5011984;28;20531;-76
2021/09/01 02:14:23;;;;;;;4.68;2.47;;;;;;;;;;5012538;28;20101;-76
2021/09/01 02:16:49;;;;;;;2.70;2.40;;;;;;;;;;5012394;28;20443;-76
2021/09/01 02:19:15;;;;;;;2.97;2.42;;;;;;;;;;5014489;28;20514;-76
2021/09/01 02:21:41;;;;;;;3.13;2.83;;;;;;;;;;5031629;28;20029;-76
2021/09/01 02:24:09;;;;;;;2.92;2.30;;;;;;;;;;5032144;28;20562;-76
2021/09/01 02:26:35;;;;;;;3.22;2.58;;;;;;;;;;5032057;28;20079;-76
2021/09/01 02:29:01;;;;;;;2.60;2.40;;;;;;;;;;5015090;28;20030;-76
2021/09/01 02:31:27;;;;;;;2.22;2.03;;;;;;;;;;5011927;28;20010;-76
2021/09/01 02:33:53;;;;;;;2.92;2.28;;;;;;;;;;5012193;28;20096;-76
2021/09/01 02:36:19;;;;;;;2.63;2.30;;;;;;;;;;5011146;28;20117;-76
2021/09/01 02:38:45;;;;;;;2.40;2.20;;;;;;;;;;5012293;28;20030;-76
2021/09/01 02:41:12;;;;;;;2.90;2.55;;;;;;;;;;5011790;28;20026;-76
2021/09/01 02:43:38;;;;;;;2.33;2.13;;;;;;;;;;5016667;28;20440;-76
2021/09/01 02:46:05;;;;;;;2.72;2.22;;;;;;;;;;5035157;28;20037;-76
2021/09/01 02:48:31;;;;;;;2.30;2.10;;;;;;;;;;5035693;28;20033;-76
2021/09/01 02:50:57;;;;;;;3.35;2.20;;;;;;;;;;5034814;28;20111;-76
2021/09/01 02:53:24;;;;;;;2.80;2.42;;;;;;;;;;5035566;28;20049;-76
2021/09/01 02:55:50;;;;;;;2.35;2.15;;;;;;;;;;5035359;28;20017;-76
2021/09/01 02:58:16;;;;;;;2.78;2.50;;;;;;;;;;5035065;28;20032;-76
2021/09/01 03:00:43;;;;;;;2.88;2.58;;;;;;;;;;5035370;28;20387;-76
2021/09/01 03:03:09;;;;;;;3.80;2.78;;;;;;;;;;5035488;28;20472;-76
2021/09/01 03:05:35;;;;;;;2.45;2.25;;;;;;;;;;5035056;28;20028;-76
2021/09/01 03:08:01;;;;;;;3.03;2.00;;;;;;;;;;5034849;28;20481;-76
2021/09/01 03:10:27;;;;;;;2.80;2.47;;;;;;;;;;5034831;28;20032;-76
2021/09/01 03:12:53;;;;;;;2.40;2.20;;;;;;;;;;5035235;28;20045;-76
2021/09/01 03:15:20;;;;;;;2.17;1.98;;;;;;;;;;5035544;28;20388;-76
2021/09/01 03:17:46;;;;;;;2.58;2.28;;;;;;;;;;5033622;28;20175;-76
2021/09/01 03:20:12;;;;;;;5.35;2.80;;;;;;;;;;5022311;28;20509;-76
2021/09/01 03:22:38;;;;;;;3.47;2.30;;;;;;;;;;5013773;28;20026;-76
2021/09/01 03:25:04;;;;;;;4.13;2.70;;;;;;;;;;5013683;28;20029;-76
2021/09/01 03:27:31;;;;;;;3.47;2.75;;;;;;;;;;5019515;28;20026;-76
2021/09/01 03:29:57;;;;;;;2.53;2.33;;;;;;;;;;5034901;28;20053;-76
2021/09/01 03:32:23;;;;;;;2.70;2.50;;;;;;;;;;5034149;28;20034;-76
2021/09/01 03:34:49;;;;;;;4.15;2.40;;;;;;;;;;5034686;28;20041;-77
2021/09/01 03:37:15;;;;;;;3.40;2.78;;;;;;;;;;5033522;28;20033;-76
2021/09/01 03:39:41;;;;;;;4.13;2.50;;;;;;;;;;5034798;28;20551;-76
2021/09/01 03:42:07;;;;;;;2.83;2.47;;;;;;;;;;5034089;28;20455;-76
2021/09/01 03:44:33;;;;;;;2.65;2.40;;;;;;;;;;5024449;28;20033;-76
2021/09/01 03:46:59;;;;;;;4.35;2.80;;;;;;;;;;5014689;28;20524;-76
2021/09/01 03:49:25;;;;;;;3.42;3.00;;;;;;;;;;5014440;28;20374;-76
2021/09/01 03:51:51;;;;;;;3.28;2.45;;;;;;;;;;5013872;28;20108;-76
2021/09/01 03:54:18;;;;;;;2.88;2.55;;;;;;;;;;5011865;28;20051;-76
2021/09/01 03:56:44;;;;;;;4.68;2.83;;;;;;;;;;5014107;28;20464;-76
2021/09/01 03:59:10;;;;;;;3.58;2.80;;;;;;;;;;5013120;28;20022;-76
2021/09/01 04:01:36;;;;;;;3.03;2.50;;;;;;;;;;5013680;28;20030;-76
2021/09/01 04:04:03;;;;;;;3.30;2.50;;;;;;;;;;5012078;28;20030;-76
2021/09/01 04:06:29;;;;;;;2.40;2.20;;;;;;;;;;5037029;28;20043;-76
2021/09/01 04:08:56;;;;;;;3.08;2.20;;;;;;;;;;5028595;28;20042;-76
2021/09/01 04:11:22;;;;;;;3.72;2.63;;;;;;;;;;5013419;28;20034;-76
2021/09/01 04:13:48;;;;;;;3.50;2.50;;;;;;;;;;5024387;28;20104;-76
2021/09/01 04:16:14;;;;;;;3.72;2.60;;;;;;;;;;5032312;28;20037;-76
2021/09/01 04:18:40;;;;;;;4.28;2.72;;;;;;;;;;5034003;28;20030;-76
2021/09/01 04:21:06;;;;;;;4.55;2.40;;;;;;;;;;5032722;28;20030;-76
2021/09/01 04:23:33;;;;;;;3.65;2.55;;;;;;;;;;5013937;28;20033;-76
2021/09/01 04:25:59;;;;;;;5.90;2.97;;;;;;;;;;5012426;28;20041;-76
2021/09/01 04:28:25;;;;;;;2.88;2.47;;;;;;;;;;5025971;28;20025;-76
2021/09/01 04:30:51;;;;;;;2.88;2.20;;;;;;;;;;5032985;28;20449;-76
2021/09/01 04:33:17;;;;;;;2.97;2.65;;;;;;;;;;5032245;28;20021;-76
2021/09/01 04:35:44;;;;;;;3.22;2.80;;;;;;;;;;5033096;28;20060;-76
2021/09/01 04:38:10;;;;;;;3.65;2.70;;;;;;;;;;5033411;28;20029;-76
2021/09/01 04:40:36;;;;;;;4.35;2.50;;;;;;;;;;5013339;28;20405;-76
2021/09/01 04:43:03;;;;;;;3.03;2.45;;;;;;;;;;5012388;28;20484;-76
2021/09/01 04:45:29;;;;;;;3.60;2.72;;;;;;;;;;5030819;28;20476;-76
2021/09/01 04:47:55;;;;;;;2.72;2.17;;;;;;;;;;5033255;28;20100;-76
2021/09/01 04:50:21;;;;;;;2.70;2.50;;;;;;;;;;5033320;28;20033;-76
2021/09/01 04:52:47;;;;;;;3.28;2.80;;;;;;;;;;5033010;28;20075;-76
2021/09/01 04:55:15;;;;;;;3.80;2.55;;;;;;;;;;5033079;28;20036;-76
2021/09/01 04:57:41;;;;;;;3.03;2.58;;;;;;;;;;5032737;28;20029;-76
2021/09/01 05:00:08;;;;;;;2.92;2.40;;;;;;;;;;5033125;28;20029;-76
2021/09/01 05:02:34;;;;;;;3.45;2.65;;;;;;;;;;5032854;28;20460;-76
2021/09/01 05:05:00;;;;;;;3.25;2.30;;;;;;;;;;5032542;28;20030;-76
2021/09/01 05:07:26;;;;;;;3.65;2.20;;;;;;;;;;5032168;28;20104;-76
2021/09/01 05:09:52;;;;;;;3.40;2.33;;;;;;;;;;5032864;28;20033;-76
2021/09/01 05:12:18;;;;;;;3.17;2.60;;;;;;;;;;5031502;28;20018;-76
2021/09/01 05:14:44;;;;;;;3.47;2.42;;;;;;;;;;5013325;28;20105;-76
2021/09/01 05:17:10;;;;;;;3.15;2.47;;;;;;;;;;5011504;28;20022;-76
2021/09/01 05:19:37;;;;;;;3.03;2.63;;;;;;;;;;5013435;28;20041;-76
2021/09/01 05:22:07;;;;;;;3.60;2.55;;;;;;;;;;5012207;28;20026;-76
2021/09/01 05:24:36;;;;;;;2.83;2.55;;;;;;;;;;5013072;28;20033;-76
2021/09/01 05:27:22;;;;;;;2.75;2.20;;;;;;;;;;5011796;28;20041;-76
2021/09/01 05:29:49;;;;;;;5.88;2.55;;;;;;;;;;5032657;28;20108;-76
2021/09/01 05:32:25;;;;;;;2.50;2.15;;;;;;;;;;5031700;28;20037;-76
2021/09/01 05:34:56;;;;;;;4.05;2.72;;;;;;;;;;5031141;28;20030;-76
2021/09/01 05:37:22;;;;;;;3.95;2.55;;;;;;;;;;5032170;28;20499;-76
2021/09/01 05:39:49;;;;;;;3.65;2.47;;;;;;;;;;5031209;28;20040;-76
2021/09/01 05:42:19;;;;;;;4.20;2.75;;;;;;;;;;5031693;28;20504;-76
2021/09/01 05:44:46;;;;;;;3.40;2.63;;;;;;;;;;5019717;28;20040;-76
2021/09/01 05:47:13;;;;;;;3.47;2.55;;;;;;;;;;5012470;28;20590;-76
2021/09/01 05:49:40;;;;;;;4.82;2.50;;;;;;;;;;5012926;28;20393;-76
2021/09/01 05:52:07;;;;;;;5.40;3.03;;;;;;;;;;5011817;28;20116;-76
2021/09/01 05:54:34;;;;;;;3.83;2.60;;;;;;;;;;5013069;28;20485;-76
2021/09/01 05:57:10;;;;;;;4.30;2.58;;;;;;;;;;5012422;28;20065;-76
2021/09/01 05:59:56;;;;;;;2.58;2.22;;;;;;;;;;5012724;28;20112;-76
2021/09/01 06:02:29;;;;;;;2.97;2.63;;;;;;;;;;5011819;28;20034;-76
2021/09/01 06:04:56;;;;;;;3.33;2.97;;;;;;;;;;5012494;28;20045;-76
2021/09/01 06:07:22;;;;;;;2.38;2.17;;;;;;;;;;5011904;28;20049;-76
2021/09/01 06:09:49;;;;;;;3.35;2.47;;;;;;;;;;5012568;28;20033;-76
2021/09/01 06:12:18;;;;;;;3.50;2.45;;;;;;;;;;5011572;28;20030;-76
2021/09/01 06:14:45;;;;;;;3.58;2.40;;;;;;;;;;5012554;28;20030;-76
2021/09/01 06:17:11;;;;;;;2.75;2.30;;;;;;;;;;5012266;28;20064;-76
2021/09/01 06:19:38;;;;;;;4.93;2.40;;;;;;;;;;5016292;28;20026;-76
2021/09/01 06:22:04;;;;;;;2.42;2.22;;;;;;;;;;5015630;28;20030;-76
2021/09/01 06:24:31;;;;;;;3.22;2.55;;;;;;;;;;5014692;28;20037;-76
2021/09/01 06:26:57;;;;;;;3.42;2.40;;;;;;;;;;5015920;28;20414;-76
2021/09/01 06:29:24;;;;;;;2.83;2.33;;;;;;;;;;5016181;28;20527;-76
2021/09/01 06:31:50;;;;;;;3.03;2.60;;;;;;;;;;5015341;28;20037;-76
2021/09/01 06:34:16;;;;;;;2.83;2.35;;;;;;;;;;5014581;28;20408;-76
2021/09/01 06:36:42;;;;;;;2.70;2.28;;;;;;;;;;5015848;28;20505;-76
2021/09/01 06:39:08;;;;;;;4.65;2.67;;;;;;;;;;5016014;28;20413;-76
2021/09/01 06:41:34;;;;;;;4.20;2.67;;;;;;;;;;5015236;28;20053;-76
2021/09/01 06:44:00;;;;;;;2.90;2.70;;;;;;;;;;5020479;28;20412;-76
2021/09/01 06:46:26;;;;;;;3.78;2.72;;;;;;;;;;5034261;28;20029;-76
2021/09/01 06:48:52;;;;;;;5.13;2.90;;;;;;;;;;5016656;28;20022;-76
2021/09/01 06:51:18;;;;;;;2.88;2.50;;;;;;;;;;5028054;28;20033;-76
2021/09/01 06:53:44;;;;;;;4.22;2.83;;;;;;;;;;5025020;28;20050;-76
2021/09/01 06:56:11;;;;;;;5.72;2.50;;;;;;;;;;5015730;28;20034;-76
2021/09/01 06:58:37;;;;;;;6.47;2.70;;;;;;;;;;5017221;28;20033;-75
2021/09/01 07:01:03;;;;;;;3.35;2.50;;;;;;;;;;5014017;28;20068;-77
2021/09/01 07:03:30;;;;;;;6.95;2.75;;;;;;;;;;5027250;28;20100;-75
2021/09/01 07:05:56;;;;;;;4.78;2.65;;;;;;;;;;5024218;28;20029;-75
2021/09/01 07:08:23;;;;;;;4.47;2.65;;;;;;;;;;5030802;28;20508;-75
2021/09/01 07:10:49;;;;;;;5.43;3.20;;;;;;;;;;5028223;28;20417;-76
2021/09/01 07:13:15;;;;;;;8.75;3.10;;;;;;;;;;5031903;28;20037;-75
2021/09/01 07:15:41;;;;;;;4.07;3.00;;;;;;;;;;5027011;28;20036;-74
2021/09/01 07:18:07;;;;;;;7.20;2.95;;;;;;;;;;5031325;28;20087;-75
2021/09/01 07:20:33;;;;;;;7.78;2.80;;;;;;;;;;5027067;28;20040;-75
2021/09/01 07:23:00;;;;;;;8.63;3.30;;;;;;;;;;5026915;28;20028;-75
2021/09/01 07:25:26;;;;;;;12.57;3.05;;;;;;;;;;5032513;28;20675;-76
2021/09/01 07:27:52;;;;;;;6.68;2.95;;;;;;;;;;5028368;28;20459;-75
2021/09/01 07:30:18;;;;;;;7.80;3.38;;;;;;;;;;5024456;28;20515;-75
2021/09/01 07:32:44;;;;;;;11.23;3.50;;;;;;;;;;5031557;28;20356;-75
2021/09/01 07:35:11;;;;;;;13.27;3.50;;;;;;;;;;5025039;28;20025;-74
2021/09/01 07:37:44;;;;;;;7.72;3.30;;;;;;;;;;5025735;28;20472;-75
2021/09/01 07:40:10;;;;;;;8.73;3.83;;;;;;;;;;5018620;28;20116;-76
2021/09/01 07:42:36;;;;;;;11.77;4.20;;;;;;;;;;5033652;28;20033;-76
2021/09/01 07:45:03;;;;;;;7.57;3.10;;;;;;;;;;5031933;28;20108;-79
2021/09/01 07:47:29;;;;;;;6.07;3.30;;;;;;;;;;5031923;28;20037;-76
2021/09/01 07:49:55;;;;;;;9.20;3.10;;;;;;;;;;5033690;28;20028;-76
2021/09/01 07:52:21;;;;;;;7.75;3.08;;;;;;;;;;5032329;28;20032;-76
2021/09/01 07:54:47;;;;;;;10.20;4.07;;;;;;;;;;5032502;28;20057;-76
2021/09/01 07:57:13;;;;;;;11.48;3.10;;;;;;;;;;5030136;28;20033;-75
2021/09/01 07:59:39;;;;;;;9.68;3.03;;;;;;;;;;5023088;28;20057;-74
2021/09/01 08:02:05;;;;;;;12.98;3.30;;;;;;;;;;5028717;28;20034;-74
2021/09/01 08:04:32;;;;;;;4.43;3.22;;;;;;;;;;5018296;28;20374;-74
2021/09/01 08:06:58;;;;;;;6.00;3.40;;;;;;;;;;5032539;28;20050;-74
2021/09/01 08:09:24;;;;;;;8.32;2.78;;;;;;;;;;5033405;28;20394;-74
2021/09/01 08:11:50;;;;;;;5.18;3.00;;;;;;;;;;5032035;28;20025;-75
2021/09/01 08:14:16;;;;;;;10.18;3.42;;;;;;;;;;5026541;28;20029;-75
2021/09/01 08:16:42;;;;;;;8.18;3.08;;;;;;;;;;5031419;28;20040;-74
2021/09/01 08:19:08;;;;;;;13.18;3.38;;;;;;;;;;5023014;28;20025;-76
2021/09/01 08:21:34;;;;;;;7.03;3.47;;;;;;;;;;5034672;28;20029;-76
2021/09/01 08:24:00;;;;;;;5.80;2.70;;;;;;;;;;5033233;28;20057;-76
2021/09/01 08:26:26;;;;;;;10.35;3.40;;;;;;;;;;5024078;28;20038;-76
2021/09/01 08:28:53;;;;;;;9.27;3.05;;;;;;;;;;5024717;28;20017;-76
2021/09/01 08:31:19;;;;;;;8.82;3.30;;;;;;;;;;5032110;28;20028;-76
2021/09/01 08:33:45;;;;;;;7.63;3.25;;;;;;;;;;5020684;28;20037;-76
2021/09/01 08:36:11;;;;;;;6.88;3.00;;;;;;;;;;5031830;28;20033;-76
2021/09/01 08:38:37;;;;;;;8.57;2.80;;;;;;;;;;5028363;28;20034;-77
2021/09/01 08:41:03;;;;;;;6.85;3.42;;;;;;;;;;5016669;28;20488;-77
2021/09/01 08:43:29;;;;;;;10.35;3.45;;;;;;;;;;5023697;28;20521;-76
2021/09/01 08:46:01;;;;;;;12.88;3.60;;;;;;;;;;5028060;28;20494;-76
2021/09/01 08:48:27;;;;;;;5.40;3.58;;;;;;;;;;5029412;28;20112;-75
2021/09/01 08:51:31;;;;;;;9.75;3.83;;;;;;;;;;5104310;27;20976;-75
2021/09/01 08:53:58;;;;;;;14.32;3.75;;;;;;;;;;5108464;28;20020;-76
2021/09/01 08:56:28;;;;;;;4.85;2.90;;;;;;;;;;5104461;28;20033;-77
